createdAt,value
2022-09-11T00:00:00.097Z,20.60
2022-09-11T00:02:36.512Z,20.60
2022-09-11T00:05:10.685Z,21.17
2022-09-11T00:07:47.478Z,21.05
2022-09-11T00:10:21.121Z,21.05
2022-09-11T00:15:38.271Z,21.60
2022-09-11T00:18:18.647Z,20.33
2022-09-11T00:20:57.703Z,20.48
2022-09-11T00:23:31.992Z,19.55
2022-09-11T00:26:10.806Z,20.05
2022-09-11T00:28:45.420Z,19.23
2022-09-11T00:31:21.135Z,19.33
2022-09-11T00:33:57.124Z,18.90
2022-09-11T00:36:36.528Z,17.23
2022-09-11T00:39:19.410Z,18.45
2022-09-11T00:41:56.921Z,18.02
2022-09-11T00:45:02.258Z,19.20
2022-09-11T00:47:39.092Z,18.13
2022-09-11T00:50:20.139Z,17.55
2022-09-11T00:53:03.231Z,17.65
2022-09-11T00:58:45.990Z,17.95
2022-09-11T01:01:24.332Z,14.90
2022-09-11T01:04:02.185Z,16.15
2022-09-11T01:06:37.241Z,15.70
2022-09-11T01:09:12.903Z,15.23
2022-09-11T01:11:56.758Z,15.15
2022-09-11T01:14:43.179Z,15.65
2022-09-11T01:20:26.646Z,14.07
2022-09-11T01:23:37.509Z,13.97
2022-09-11T01:26:38.080Z,15.68
2022-09-11T01:29:22.627Z,15.05
2022-09-11T01:32:07.509Z,15.50
2022-09-11T01:34:50.337Z,16.02
2022-09-11T01:37:57.632Z,15.60
2022-09-11T01:40:43.384Z,15.30
2022-09-11T01:43:23.162Z,14.73
2022-09-11T01:46:06.092Z,16.58
2022-09-11T01:48:56.686Z,16.05
2022-09-11T01:51:39.370Z,16.42
2022-09-11T01:54:22.540Z,16.25
2022-09-11T01:57:02.464Z,15.10
2022-09-11T01:59:41.231Z,15.63
2022-09-11T02:02:24.097Z,15.60
2022-09-11T02:05:04.119Z,14.80
2022-09-11T02:07:47.308Z,13.43
2022-09-11T02:10:30.294Z,13.13
2022-09-11T02:13:15.435Z,11.70
2022-09-11T02:15:53.852Z,11.10
2022-09-11T02:18:43.052Z,10.38
2022-09-11T02:21:17.486Z,10.05
2022-09-11T02:23:50.976Z,9.73
2022-09-11T02:26:32.795Z,9.23
2022-09-11T02:29:12.574Z,8.40
2022-09-11T02:31:50.349Z,9.23
2022-09-11T02:34:35.480Z,8.63
2022-09-11T02:37:20.362Z,8.50
2022-09-11T02:40:32.681Z,8.25
2022-09-11T02:43:34.659Z,8.23
2022-09-11T02:46:30.214Z,8.65
2022-09-11T02:49:10.771Z,7.70
2022-09-11T02:51:59.496Z,7.90
2022-09-11T02:54:43.307Z,8.80
2022-09-11T02:57:26.761Z,7.78
2022-09-11T03:00:07.123Z,8.68
2022-09-11T03:02:53.758Z,8.07
2022-09-11T03:05:29.870Z,9.15
2022-09-11T03:08:09.743Z,9.82
2022-09-11T03:10:45.817Z,8.65
2022-09-11T03:13:19.506Z,9.60
2022-09-11T03:18:35.412Z,9.65
2022-09-11T03:21:11.521Z,9.75
2022-09-11T03:23:48.449Z,9.32
2022-09-11T03:26:23.762Z,9.32
2022-09-11T03:28:59.357Z,10.65
2022-09-11T03:31:36.243Z,10.57
2022-09-11T03:34:14.008Z,10.82
2022-09-11T03:36:48.171Z,11.38
2022-09-11T03:39:26.202Z,11.18
2022-09-11T03:42:03.259Z,10.57
2022-09-11T03:44:37.042Z,11.32
2022-09-11T03:47:15.478Z,11.00
2022-09-11T03:49:52.053Z,11.85
2022-09-11T03:52:31.488Z,12.13
2022-09-11T03:55:11.006Z,11.45
2022-09-11T03:57:46.861Z,11.48
2022-09-11T04:00:20.940Z,11.05
2022-09-11T04:05:40.718Z,12.63
2022-09-11T04:08:15.550Z,13.40
2022-09-11T04:11:00.575Z,13.80
2022-09-11T04:13:37.959Z,13.32
2022-09-11T04:16:17.032Z,14.38
2022-09-11T04:18:54.497Z,13.68
2022-09-11T04:21:35.233Z,13.07
2022-09-11T04:24:13.864Z,13.77
2022-09-11T04:26:56.229Z,13.68
2022-09-11T04:29:38.409Z,13.05
2022-09-11T04:32:19.531Z,13.30
2022-09-11T04:34:56.582Z,15.07
2022-09-11T04:37:30.232Z,13.93
2022-09-11T04:40:07.336Z,15.40
2022-09-11T04:42:45.230Z,13.98
2022-09-11T04:45:20.200Z,14.80
2022-09-11T04:47:54.112Z,15.73
2022-09-11T04:50:31.238Z,14.05
2022-09-11T04:53:28.962Z,15.35
2022-09-11T04:56:07.067Z,17.15
2022-09-11T04:58:53.575Z,15.85
2022-09-11T05:01:35.337Z,16.38
2022-09-11T05:04:15.078Z,17.48
2022-09-11T05:06:48.796Z,17.23
2022-09-11T05:09:27.420Z,18.58
2022-09-11T05:12:06.473Z,19.33
2022-09-11T05:14:48.445Z,20.77
2022-09-11T05:17:23.656Z,19.17
2022-09-11T05:19:57.112Z,19.30
2022-09-11T05:22:30.759Z,19.67
2022-09-11T05:25:09.128Z,20.77
2022-09-11T05:27:42.583Z,20.10
2022-09-11T05:30:17.823Z,20.35
2022-09-11T05:32:56.343Z,20.08
2022-09-11T05:35:32.549Z,19.63
2022-09-11T05:38:11.021Z,19.45
2022-09-11T05:40:49.474Z,19.40
2022-09-11T05:43:26.749Z,19.60
2022-09-11T05:46:05.527Z,18.52
2022-09-11T05:48:43.273Z,19.63
2022-09-11T05:51:21.762Z,18.10
2022-09-11T05:53:58.787Z,18.27
2022-09-11T05:56:33.352Z,18.65
2022-09-11T05:59:19.653Z,18.35
2022-09-11T06:01:58.087Z,18.83
2022-09-11T06:04:43.971Z,16.38
2022-09-11T06:07:18.466Z,19.65
2022-09-11T06:10:02.310Z,17.63
2022-09-11T06:12:37.122Z,18.98
2022-09-11T06:15:30.118Z,17.77
2022-09-11T06:18:09.949Z,17.88
2022-09-11T06:20:44.605Z,18.08
2022-09-11T06:23:24.087Z,16.75
2022-09-11T06:26:05.134Z,15.32
2022-09-11T06:28:43.061Z,14.38
2022-09-11T06:31:20.166Z,14.57
2022-09-11T06:33:55.871Z,14.85
2022-09-11T06:36:31.743Z,15.20
2022-09-11T06:39:09.048Z,50.90
2022-09-11T06:41:43.261Z,16.42
2022-09-11T06:44:20.420Z,14.95
2022-09-11T06:46:54.097Z,17.85
2022-09-11T06:49:29.290Z,15.48
2022-09-11T06:52:35.927Z,16.33
2022-09-11T06:55:27.982Z,17.27
2022-09-11T06:58:10.165Z,16.52
2022-09-11T07:00:43.649Z,16.70
2022-09-11T07:03:19.779Z,17.15
2022-09-11T07:05:58.066Z,17.40
2022-09-11T07:08:31.658Z,17.63
2022-09-11T07:11:05.801Z,17.80
2022-09-11T07:13:42.076Z,15.90
2022-09-11T07:16:16.661Z,18.60
2022-09-11T07:18:56.058Z,15.82
2022-09-11T07:21:31.469Z,15.68
2022-09-11T07:24:10.610Z,15.48
2022-09-11T07:26:49.783Z,14.35
2022-09-11T07:29:29.622Z,15.00
2022-09-11T07:32:08.108Z,14.10
2022-09-11T07:34:41.887Z,14.85
2022-09-11T07:37:18.659Z,13.55
2022-09-11T07:39:53.744Z,14.48
2022-09-11T07:42:30.250Z,14.50
2022-09-11T07:45:04.528Z,23.20
2022-09-11T07:47:39.996Z,10.63
2022-09-11T07:50:14.625Z,8.10
2022-09-11T07:52:51.134Z,7.53
2022-09-11T07:55:26.628Z,6.55
2022-09-11T07:58:01.133Z,6.32
2022-09-11T08:00:37.292Z,6.38
2022-09-11T08:03:20.387Z,6.82
2022-09-11T08:05:59.281Z,7.20
2022-09-11T08:08:38.434Z,7.82
2022-09-11T08:11:14.053Z,6.70
2022-09-11T08:13:52.410Z,6.65
2022-09-11T08:16:30.157Z,7.13
2022-09-11T08:19:06.438Z,6.85
2022-09-11T08:21:40.964Z,7.43
2022-09-11T08:24:17.134Z,7.88
2022-09-11T08:26:52.042Z,8.27
2022-09-11T08:29:26.304Z,9.55
2022-09-11T08:32:03.223Z,9.65
2022-09-11T08:34:39.633Z,9.27
2022-09-11T08:37:13.234Z,13.40
2022-09-11T08:42:22.780Z,8.20
2022-09-11T08:45:07.071Z,9.27
2022-09-11T08:47:50.357Z,11.57
2022-09-11T08:50:27.781Z,8.27
2022-09-11T08:53:04.020Z,11.32
2022-09-11T08:55:45.917Z,10.75
2022-09-11T08:58:30.404Z,9.73
2022-09-11T09:01:15.436Z,9.50
2022-09-11T09:04:13.650Z,9.50
2022-09-11T09:06:59.511Z,9.70
2022-09-11T09:09:43.072Z,16.25
2022-09-11T09:12:28.506Z,12.63
2022-09-11T09:15:24.271Z,10.45
2022-09-11T09:18:03.294Z,9.88
2022-09-11T09:20:42.085Z,10.70
2022-09-11T09:23:20.682Z,10.32
2022-09-11T09:25:57.351Z,10.38
2022-09-11T09:28:39.971Z,9.35
2022-09-11T09:31:16.918Z,9.63
2022-09-11T09:33:55.482Z,8.70
2022-09-11T09:36:34.008Z,8.32
2022-09-11T09:39:15.264Z,22.33
2022-09-11T09:42:11.238Z,9.60
2022-09-11T09:45:01.288Z,10.23
2022-09-11T09:47:34.945Z,8.70
2022-09-11T09:50:19.883Z,9.20
2022-09-11T09:52:57.294Z,10.68
2022-09-11T09:55:31.552Z,18.48
2022-09-11T09:58:05.184Z,24.17
2022-09-11T10:03:20.939Z,8.35
2022-09-11T10:05:56.142Z,8.02
2022-09-11T10:08:35.747Z,7.53
2022-09-11T10:11:13.654Z,8.20
2022-09-11T10:13:55.768Z,8.30
2022-09-11T10:16:32.927Z,10.80
2022-09-11T10:19:09.277Z,8.48
2022-09-11T10:21:42.646Z,7.90
2022-09-11T10:24:24.243Z,8.82
2022-09-11T10:26:58.194Z,7.95
2022-09-11T10:29:32.302Z,8.15
2022-09-11T10:32:07.263Z,7.78
2022-09-11T10:34:42.189Z,7.85
2022-09-11T10:37:25.722Z,6.82
2022-09-11T10:40:07.359Z,6.82
2022-09-11T10:42:41.800Z,6.85
2022-09-11T10:45:18.018Z,7.28
2022-09-11T10:47:52.947Z,24.98
2022-09-11T10:50:28.889Z,7.15
2022-09-11T10:53:14.086Z,6.47
2022-09-11T10:55:58.178Z,6.60
2022-09-11T10:58:36.003Z,39.92
2022-09-11T11:01:12.989Z,7.18
2022-09-11T11:03:49.523Z,6.07
2022-09-11T11:06:42.524Z,6.25
2022-09-11T11:09:32.422Z,6.28
2022-09-11T11:12:21.838Z,6.25
2022-09-11T11:15:33.653Z,6.30
2022-09-11T11:18:31.492Z,6.32
2022-09-11T11:21:15.245Z,6.40
2022-09-11T11:24:04.346Z,7.30
2022-09-11T11:26:47.447Z,7.88
2022-09-11T11:29:45.786Z,9.18
2022-09-11T11:32:36.881Z,9.30
2022-09-11T11:35:26.633Z,15.45
2022-09-11T11:38:11.105Z,9.05
2022-09-11T11:40:49.775Z,8.57
2022-09-11T11:43:29.469Z,7.55
2022-09-11T11:46:10.865Z,7.72
2022-09-11T11:48:50.125Z,7.47
2022-09-11T11:51:28.575Z,6.63
2022-09-11T11:54:09.879Z,5.65
2022-09-11T11:56:48.399Z,5.75
2022-09-11T11:59:31.407Z,5.35
2022-09-11T12:02:13.471Z,5.57
2022-09-11T12:04:51.868Z,5.75
2022-09-11T12:07:28.047Z,5.47
2022-09-11T12:10:04.334Z,4.97
2022-09-11T12:12:47.897Z,5.28
2022-09-11T12:15:23.499Z,4.85
2022-09-11T12:18:05.875Z,5.03
2022-09-11T12:20:41.798Z,4.72
2022-09-11T12:23:44.487Z,4.65
2022-09-11T12:26:22.354Z,5.05
2022-09-11T12:29:29.077Z,4.47
2022-09-11T12:32:41.003Z,4.10
2022-09-11T12:35:26.213Z,4.15
2022-09-11T12:38:04.662Z,3.72
2022-09-11T12:40:53.567Z,3.85
2022-09-11T12:43:49.349Z,3.47
2022-09-11T12:47:19.190Z,4.03
2022-09-11T12:50:07.143Z,4.07
2022-09-11T12:52:51.046Z,4.68
2022-09-11T12:55:33.431Z,3.90
2022-09-11T12:58:25.303Z,4.00
2022-09-11T13:01:16.081Z,3.60
2022-09-11T13:03:58.036Z,3.72
2022-09-11T13:06:43.809Z,3.78
2022-09-11T13:09:20.740Z,3.90
2022-09-11T13:11:56.296Z,5.50
2022-09-11T13:14:49.494Z,3.72
2022-09-11T13:17:32.371Z,3.80
2022-09-11T13:20:27.445Z,3.53
2022-09-11T13:23:18.544Z,3.60
2022-09-11T13:25:55.799Z,3.47
2022-09-11T13:28:31.881Z,3.83
2022-09-11T13:31:08.196Z,3.53
2022-09-11T13:33:44.512Z,3.80
2022-09-11T13:36:21.953Z,3.63
2022-09-11T13:39:00.373Z,4.15
2022-09-11T13:41:37.799Z,3.17
2022-09-11T13:44:15.450Z,3.72
2022-09-11T13:46:53.498Z,3.55
2022-09-11T13:49:37.755Z,3.40
2022-09-11T13:52:16.020Z,3.35
2022-09-11T13:54:52.088Z,3.45
2022-09-11T13:57:28.286Z,3.25
2022-09-11T14:00:02.239Z,3.88
2022-09-11T14:02:50.810Z,3.65
2022-09-11T14:05:28.564Z,3.92
2022-09-11T14:08:04.843Z,3.50
2022-09-11T14:10:47.334Z,3.92
2022-09-11T14:13:25.474Z,3.80
2022-09-11T14:16:02.952Z,4.00
2022-09-11T14:18:42.484Z,3.67
2022-09-11T14:21:20.793Z,4.05
2022-09-11T14:23:56.400Z,4.03
2022-09-11T14:26:42.835Z,3.50
2022-09-11T14:29:25.358Z,3.70
2022-09-11T14:32:28.043Z,3.60
2022-09-11T14:35:02.408Z,3.47
2022-09-11T14:37:45.920Z,3.28
2022-09-11T14:40:20.600Z,3.03
2022-09-11T14:42:54.448Z,3.53
2022-09-11T14:45:27.870Z,3.47
2022-09-11T14:50:35.069Z,2.95
2022-09-11T14:55:51.518Z,3.13
2022-09-11T14:58:28.999Z,3.35
2022-09-11T15:01:02.525Z,2.97
2022-09-11T15:06:15.708Z,2.20
2022-09-11T15:08:50.699Z,2.15
2022-09-11T15:11:25.113Z,2.17
2022-09-11T15:14:16.081Z,30.20
2022-09-11T15:16:52.103Z,21.17
2022-09-11T15:21:59.528Z,2.00
2022-09-11T15:24:35.206Z,2.20
2022-09-11T15:27:10.565Z,2.22
2022-09-11T15:29:44.186Z,2.65
2022-09-11T15:32:17.866Z,6.38
2022-09-11T15:34:51.861Z,3.13
2022-09-11T15:37:27.230Z,2.22
2022-09-11T15:40:02.346Z,2.10
2022-09-11T15:42:39.683Z,1.90
2022-09-11T15:45:14.121Z,1.92
2022-09-11T15:47:47.806Z,1.75
2022-09-11T15:52:58.831Z,2.80
2022-09-11T15:55:37.091Z,10.05
2022-09-11T15:58:10.618Z,2.88
2022-09-11T16:03:17.960Z,2.20
2022-09-11T16:05:51.455Z,2.00
2022-09-11T16:08:28.040Z,1.83
2022-09-11T16:11:12.095Z,3.92
2022-09-11T16:13:49.422Z,2.90
2022-09-11T16:16:29.362Z,6.10
2022-09-11T16:19:02.802Z,2.47
2022-09-11T16:21:37.076Z,2.40
2022-09-11T16:24:11.146Z,1.75
2022-09-11T16:26:46.548Z,2.05
2022-09-11T16:29:20.680Z,2.17
2022-09-11T16:31:55.611Z,2.35
2022-09-11T16:34:29.959Z,2.35
2022-09-11T16:37:03.587Z,2.50
2022-09-11T16:42:12.913Z,2.35
2022-09-11T16:44:46.468Z,2.10
2022-09-11T16:50:09.492Z,2.10
2022-09-11T16:52:43.010Z,2.30
2022-09-11T16:55:16.637Z,2.88
2022-09-11T16:57:52.207Z,2.75
2022-09-11T17:00:25.828Z,2.22
2022-09-11T17:05:32.624Z,2.17
2022-09-11T17:10:43.984Z,2.40
2022-09-11T17:13:19.326Z,2.10
2022-09-11T17:15:52.881Z,2.47
2022-09-11T17:21:00.901Z,2.80
2022-09-11T17:23:35.165Z,2.50
2022-09-11T17:26:09.597Z,2.33
2022-09-11T17:28:45.990Z,2.63
2022-09-11T17:31:20.840Z,2.55
2022-09-11T17:33:54.407Z,2.63
2022-09-11T17:36:28.140Z,3.05
2022-09-11T17:39:01.556Z,2.70
2022-09-11T17:41:35.117Z,2.90
2022-09-11T17:44:10.183Z,3.67
2022-09-11T17:46:43.792Z,3.28
2022-09-11T17:49:18.008Z,2.67
2022-09-11T17:51:51.479Z,2.40
2022-09-11T17:54:25.063Z,2.10
2022-09-11T17:59:34.082Z,1.77
2022-09-11T18:02:08.194Z,2.42
2022-09-11T18:04:41.810Z,1.83
2022-09-11T18:07:15.665Z,2.30
2022-09-11T18:12:29.119Z,8.57
2022-09-11T18:15:04.356Z,7.78
2022-09-11T18:17:38.481Z,5.88
2022-09-11T18:20:12.260Z,2.92
2022-09-11T18:25:23.412Z,2.33
2022-09-11T18:27:57.210Z,6.28
2022-09-11T18:30:32.992Z,3.10
2022-09-11T18:33:10.610Z,2.90
2022-09-11T18:35:46.002Z,3.15
2022-09-11T18:38:20.342Z,3.25
2022-09-11T18:41:00.191Z,3.75
2022-09-11T18:43:33.835Z,2.90
2022-09-11T18:46:08.849Z,4.43
2022-09-11T18:48:44.561Z,2.78
2022-09-11T18:51:19.797Z,3.20
2022-09-11T18:53:54.162Z,3.35
2022-09-11T18:56:33.283Z,2.80
2022-09-11T18:59:06.834Z,2.97
2022-09-11T19:01:42.115Z,2.95
2022-09-11T19:04:16.502Z,3.03
2022-09-11T19:06:50.091Z,13.60
2022-09-11T19:11:56.906Z,4.70
2022-09-11T19:14:30.718Z,2.60
2022-09-11T19:19:39.254Z,2.65
2022-09-11T19:22:12.826Z,7.80
2022-09-11T19:24:46.464Z,3.97
2022-09-11T19:27:20.171Z,2.95
2022-09-11T19:32:28.714Z,2.70
2022-09-11T19:35:02.451Z,3.13
2022-09-11T19:37:36.777Z,2.95
2022-09-11T19:40:11.082Z,3.05
2022-09-11T19:42:44.756Z,3.90
2022-09-11T19:45:18.342Z,2.50
2022-09-11T19:47:53.791Z,3.03
2022-09-11T19:50:34.043Z,2.72
2022-09-11T19:53:07.515Z,3.20
2022-09-11T19:55:40.989Z,3.45
2022-09-11T19:58:14.460Z,3.60
2022-09-11T20:00:50.124Z,4.03
2022-09-11T20:03:25.608Z,3.90
2022-09-11T20:06:01.322Z,3.63
2022-09-11T20:08:37.908Z,3.83
2022-09-11T20:11:14.288Z,4.05
2022-09-11T20:13:47.969Z,4.40
2022-09-11T20:19:00.505Z,4.13
2022-09-11T20:21:36.205Z,6.60
2022-09-11T20:24:09.725Z,4.60
2022-09-11T20:26:43.408Z,4.43
2022-09-11T20:34:38.951Z,4.10
2022-09-11T20:37:12.795Z,3.25
2022-09-11T20:39:46.262Z,3.60
2022-09-11T20:42:19.732Z,4.20
2022-09-11T20:44:53.206Z,4.28
2022-09-11T20:47:26.824Z,7.10
2022-09-11T20:50:01.646Z,3.30
2022-09-11T20:52:39.319Z,3.50
2022-09-11T20:55:13.047Z,3.58
2022-09-11T20:57:46.496Z,2.88
2022-09-11T21:00:20.537Z,3.33
2022-09-11T21:02:54.236Z,3.67
2022-09-11T21:08:02.269Z,3.50
2022-09-11T21:10:37.272Z,3.13
2022-09-11T21:13:11.884Z,3.42
2022-09-11T21:15:46.396Z,3.30
2022-09-11T21:18:19.867Z,3.20
2022-09-11T21:20:58.036Z,2.65
2022-09-11T21:23:31.930Z,3.15
2022-09-11T21:28:41.372Z,2.90
2022-09-11T21:34:13.080Z,2.88
2022-09-11T21:36:47.960Z,3.15
2022-09-11T21:39:23.688Z,2.80
2022-09-11T21:42:11.846Z,3.47
2022-09-11T21:44:46.965Z,3.72
2022-09-11T21:47:23.771Z,2.60
2022-09-11T21:49:57.356Z,2.90
2022-09-11T21:52:32.391Z,2.80
2022-09-11T21:55:06.806Z,2.88
2022-09-11T21:57:42.968Z,3.00
2022-09-11T22:00:17.153Z,3.42
2022-09-11T22:02:50.940Z,2.92
2022-09-11T22:05:24.519Z,3.28
2022-09-11T22:07:59.832Z,2.97
2022-09-11T22:10:33.373Z,3.20
2022-09-11T22:13:06.974Z,3.15
2022-09-11T22:15:41.963Z,3.20
2022-09-11T22:18:16.328Z,2.92
2022-09-11T22:20:52.075Z,3.42
2022-09-11T22:23:27.628Z,3.13
2022-09-11T22:26:02.664Z,3.30
2022-09-11T22:28:36.815Z,3.20
2022-09-11T22:31:10.800Z,3.65
2022-09-11T22:33:44.466Z,3.72
2022-09-11T22:38:54.703Z,3.60
2022-09-11T22:41:28.792Z,3.40
2022-09-11T22:44:02.350Z,3.67
2022-09-11T22:46:35.957Z,3.30
2022-09-11T22:49:10.049Z,4.35
2022-09-11T22:51:43.457Z,4.05
2022-09-11T22:54:18.641Z,3.45
2022-09-11T22:56:52.223Z,3.50
2022-09-11T22:59:25.651Z,3.78
2022-09-11T23:01:59.873Z,4.60
2022-09-11T23:04:33.487Z,4.10
2022-09-11T23:07:18.541Z,4.10
2022-09-11T23:09:53.475Z,4.95
2022-09-11T23:12:28.887Z,3.95
2022-09-11T23:15:03.266Z,4.43
2022-09-11T23:17:36.970Z,4.10
2022-09-11T23:20:11.393Z,4.95
2022-09-11T23:22:46.280Z,4.70
2022-09-11T23:25:21.663Z,4.88
2022-09-11T23:27:55.188Z,4.97
2022-09-11T23:30:28.923Z,4.75
2022-09-11T23:35:38.202Z,4.80
2022-09-11T23:38:11.930Z,4.75
2022-09-11T23:40:46.915Z,5.43
2022-09-11T23:43:20.432Z,5.22
2022-09-11T23:45:53.944Z,5.53
2022-09-11T23:48:27.409Z,5.38
2022-09-11T23:51:01.239Z,5.05
2022-09-11T23:56:10.634Z,4.95
2022-09-11T23:58:45.405Z,5.40
